• Join FlightAware (Why Join?)
  • Login
  • US Flag 
07:54PM EST


 

Airport Tracker/Info


-or-


 

Live Flight TrackerFlight Track Log ✈ N61698 ✈ 01-Jul-2013 ✈ KAWO - KRDM

Flight Track Log - Related Links

Times and Time Zones

All times are in EDT time to prevent confusion due to time zone crossing. See the N61698 flight status page for this flight to view local times or setup timezone preferences in your user account.

Time Position Orientation Groundspeed Altitude Reporting Facility
EDT Latitude Longitude Course Direction KTS MPH feet Rate Location/Type
09:42PM 48.0883 -122.1317 161° South 143 165 5,700  Level Seattle Center
09:43PM 48.0447 -122.1094 161° South 193 222 6,300 180 Climbing Seattle Center
09:44PM 47.9836 -122.0786 161° South 215 247 6,200 120 Descending Seattle Center
09:45PM 47.9250 -122.0636 170° South 213 245 6,600 780 Climbing Seattle Center
09:46PM 47.8761 -122.0883 199° South 187 215 7,800 1,260 Climbing Seattle Center
09:47PM 47.8356 -122.1147 204° Southwest 163 188 9,300 1,560 Climbing Seattle Center
09:48PM 47.7975 -122.1522 214° Southwest 154 177 10,900 1,500 Climbing Seattle Center
09:49PM 47.7586 -122.1833 208° Southwest 150 173 12,400 1,320 Climbing Seattle Center
09:50PM 47.7197 -122.2092 204° Southwest 157 181 13,700 1,320 Climbing Seattle Center
09:51PM 47.6797 -122.2206 191° South 150 173 15,100 660 Climbing Seattle Center
09:52PM 47.6222 -122.2361 190° South 212 244 15,100  Level Seattle Center
09:53PM 47.5664 -122.2569 194° South 212 244 15,100  Level Seattle Center
09:54PM 47.5081 -122.2792 194° South 216 249 15,100  Level Seattle Center
09:55PM 47.4500 -122.3006 194° South 220 253 15,100  Level Seattle Center
09:56PM 47.3861 -122.2917 175° South 223 257 15,100  Level Seattle Center
09:57PM 47.3269 -122.2617 161° South 226 260 15,100  Level Seattle Center
09:58PM 47.2628 -122.2344 164° South 224 258 15,100  Level Seattle Center
09:59PM 47.2022 -122.2097 164° South 226 260 15,100  Level Seattle Center
10:00PM 47.1408 -122.1858 165° South 228 262 15,100 -60 Level Seattle Center
10:01PM 47.0800 -122.1608 164° South 228 262 15,000 -60 Descending Seattle Center
10:02PM 47.0192 -122.1369 165° South 227 261 15,000  Level Seattle Center
10:03PM 46.9528 -122.1139 167° South 227 261 15,000  Level Seattle Center
10:04PM 46.8906 -122.0928 167° South 230 265 15,000  Level Seattle Center
10:05PM 46.8294 -122.0631 162° South 234 269 15,000  Level Seattle Center
10:06PM 46.7706 -122.0250 156° South 232 267 15,000  Level Seattle Center
10:07PM 46.7175 -121.9894 155° Southeast 234 269 15,000  Level Seattle Center
10:08PM 46.6481 -121.9433 155° Southeast 232 267 15,000  Level Seattle Center
10:09PM 46.5883 -121.9086 158° South 233 268 15,000  Level Seattle Center
10:10PM 46.5267 -121.8867 166° South 229 264 15,100  Climbing Seattle Center
10:11PM 46.4644 -121.8708 170° South 229 264 15,100  Level Seattle Center
10:12PM 46.4025 -121.8486 166° South 231 266 15,100  Level Seattle Center
10:13PM 46.3414 -121.8278 167° South 228 262 15,100  Level Seattle Center
10:14PM 46.2783 -121.8069 167° South 233 268 15,100  Level Seattle Center
10:15PM 46.2125 -121.7836 166° South 233 268 15,100  Level Seattle Center
10:17PM 46.1494 -121.7644 168° South 232 267 15,100  Level Seattle Center
10:18PM 46.0869 -121.7414 166° South 233 268 15,100  Level Seattle Center
10:19PM 46.0239 -121.7231 169° South 232 267 15,100  Level Seattle Center
10:20PM 45.9603 -121.7022 167° South 234 269 15,100  Level Seattle Center
10:21PM 45.8847 -121.6750 166° South 237 273 15,100  Level Seattle Center
10:22PM 45.8214 -121.6533 167° South 236 272 15,100  Level Seattle Center
10:23PM 45.7592 -121.6319 167° South 232 267 15,100  Level Seattle Center
10:24PM 45.6969 -121.6131 168° South 231 266 15,100  Level Seattle Center
10:25PM 45.6350 -121.5933 167° South 229 264 15,100  Level Seattle Center
10:26PM 45.5739 -121.5714 166° South 227 261 15,100 -60 Level Seattle Center
10:27PM 45.5100 -121.5531 169° South 232 267 15,000 -60 Descending Seattle Center
10:28PM 45.4472 -121.5314 166° South 233 268 15,000  Level Seattle Center
10:29PM 45.3861 -121.5122 168° South 229 264 15,000 -60 Level Seattle Center
10:30PM 45.3250 -121.4914 167° South 227 261 14,900 -60 Descending Seattle Center
10:31PM 45.2628 -121.4725 168° South 228 262 14,900  Level Seattle Center
10:32PM 45.1922 -121.4483 166° South 223 257 14,900 60 Level Seattle Center
10:33PM 45.1317 -121.4294 168° South 223 257 15,100 60 Climbing Seattle Center
10:34PM 45.0711 -121.4086 166° South 227 261 15,100  Level Seattle Center
10:35PM 45.0100 -121.3897 168° South 227 261 15,100  Level Seattle Center
10:36PM 44.9494 -121.3703 167° South 225 259 15,100  Level Seattle Center
10:37PM 44.8883 -121.3511 167° South 225 259 15,100 -360 Level Seattle Center
10:38PM 44.8258 -121.3269 165° South 232 267 14,400 -840 Descending Seattle Center
10:39PM 44.7611 -121.2958 161° South 244 281 13,500 -1,020 Descending Seattle Center
10:40PM 44.6967 -121.2700 164° South 243 280 12,400 -1,140 Descending Seattle Center
10:41PM 44.6347 -121.2481 166° South 233 268 11,200 -1,200 Descending Seattle Center
10:42PM 44.5689 -121.2281 168° South 230 265 10,000 -1,320 Descending Seattle Center
10:43PM 44.5044 -121.2089 168° South 235 270 8,600 -1,380 Descending Seattle Center